createdAt,value
2022-08-31T00:00:13.237Z,560
2022-08-31T00:05:14.669Z,572.57143
2022-08-31T00:10:16.339Z,566.22222
2022-08-31T00:15:17.935Z,572.57143
2022-08-31T00:20:32.843Z,566.22222
2022-08-31T00:25:35.777Z,572.57143
2022-08-31T00:30:37.713Z,572.57143
2022-08-31T00:35:39.183Z,572.57143
2022-08-31T00:40:44.747Z,566.22222
2022-08-31T00:45:47.065Z,553.90099
2022-08-31T00:50:48.805Z,553.90099
2022-08-31T00:55:50.565Z,542.05825
2022-08-31T01:00:52.578Z,542.05825
2022-08-31T01:05:54.333Z,525.13208
2022-08-31T01:10:55.993Z,519.70093
2022-08-31T01:15:57.771Z,519.70093
2022-08-31T01:20:59.759Z,514.37037
2022-08-31T01:26:01.813Z,519.70093
2022-08-31T01:31:03.975Z,514.37037
2022-08-31T01:36:05.983Z,504
2022-08-31T01:41:07.725Z,509.13761
2022-08-31T01:46:09.393Z,514.37037
2022-08-31T01:51:12.476Z,514.37037
2022-08-31T01:56:14.246Z,530.66667
2022-08-31T02:01:34.342Z,553.90099
2022-08-31T02:06:36.599Z,553.90099
2022-08-31T02:11:38.163Z,560
2022-08-31T02:16:39.890Z,560
2022-08-31T02:21:41.673Z,553.90099
2022-08-31T02:26:43.216Z,553.90099
2022-08-31T02:31:45.348Z,547.92157
2022-08-31T02:36:47.204Z,560
2022-08-31T02:41:48.935Z,547.92157
2022-08-31T02:46:51.092Z,536.30769
2022-08-31T02:51:52.906Z,519.70093
2022-08-31T02:56:54.470Z,504
2022-08-31T03:01:56.412Z,504
2022-08-31T03:06:57.959Z,504
2022-08-31T03:11:59.573Z,498.95495
2022-08-31T03:17:01.269Z,504
2022-08-31T03:22:02.902Z,509.13761
2022-08-31T03:27:04.344Z,509.13761
2022-08-31T03:32:06.133Z,519.70093
2022-08-31T03:37:07.583Z,525.13208
2022-08-31T03:42:09.241Z,525.13208
2022-08-31T03:47:11.111Z,525.13208
2022-08-31T03:52:16.209Z,553.90099
2022-08-31T03:57:17.692Z,547.92157
2022-08-31T04:02:19.559Z,553.90099
2022-08-31T04:07:21.277Z,536.30769
2022-08-31T04:12:22.704Z,547.92157
2022-08-31T04:17:24.420Z,530.66667
2022-08-31T04:22:26.017Z,536.30769
2022-08-31T04:27:27.680Z,560
2022-08-31T04:32:29.906Z,542.05825
2022-08-31T04:37:31.614Z,547.92157
2022-08-31T04:42:33.275Z,536.30769
2022-08-31T04:47:35.139Z,536.30769
2022-08-31T04:52:36.901Z,530.66667
2022-08-31T04:57:38.706Z,530.66667
2022-08-31T05:02:41.174Z,509.13761
2022-08-31T05:07:42.999Z,509.13761
2022-08-31T05:12:44.636Z,479.65217
2022-08-31T05:17:46.284Z,498.95495
2022-08-31T05:22:48.167Z,509.13761
2022-08-31T05:27:49.843Z,519.70093
2022-08-31T05:32:52.157Z,536.30769
2022-08-31T05:37:53.946Z,536.30769
2022-08-31T05:42:55.910Z,509.13761
2022-08-31T05:47:58.121Z,525.13208
2022-08-31T05:52:59.877Z,498.95495
2022-08-31T05:58:01.623Z,514.37037
2022-08-31T06:03:03.688Z,525.13208
2022-08-31T06:08:05.599Z,525.13208
2022-08-31T06:13:07.640Z,519.70093
2022-08-31T06:18:09.845Z,525.13208
2022-08-31T06:23:11.829Z,514.37037
2022-08-31T06:28:13.664Z,525.13208
2022-08-31T06:33:16.421Z,519.70093
2022-08-31T06:38:17.991Z,519.70093
2022-08-31T06:43:19.902Z,514.37037
2022-08-31T06:48:21.601Z,519.70093
2022-08-31T06:53:23.160Z,519.70093
2022-08-31T06:58:24.731Z,504
2022-08-31T07:03:27.237Z,542.05825
2022-08-31T07:08:28.794Z,525.13208
2022-08-31T07:13:30.250Z,525.13208
2022-08-31T07:18:33.543Z,514.37037
2022-08-31T07:23:35.418Z,519.70093
2022-08-31T07:28:36.898Z,519.70093
2022-08-31T07:33:39.059Z,525.13208
2022-08-31T07:38:40.584Z,509.13761
2022-08-31T07:43:42.128Z,514.37037
2022-08-31T07:48:43.809Z,514.37037
2022-08-31T07:53:45.525Z,519.70093
2022-08-31T07:58:47.334Z,514.37037
2022-08-31T08:03:49.308Z,509.13761
2022-08-31T08:09:12.676Z,525.13208
2022-08-31T08:14:23.704Z,514.37037
2022-08-31T08:19:26.978Z,509.13761
2022-08-31T08:24:28.584Z,553.90099
2022-08-31T08:29:33.613Z,530.66667
2022-08-31T08:34:35.950Z,530.66667
2022-08-31T08:39:37.600Z,547.92157
2022-08-31T08:44:39.389Z,536.30769
2022-08-31T08:49:41.315Z,530.66667
2022-08-31T08:54:43.498Z,530.66667
2022-08-31T08:59:45.298Z,525.13208
2022-08-31T09:04:47.496Z,542.05825
2022-08-31T09:09:49.379Z,553.90099
2022-08-31T09:14:51.265Z,572.57143
2022-08-31T09:19:52.717Z,553.90099
2022-08-31T09:24:54.666Z,525.13208
2022-08-31T09:29:56.481Z,579.05155
2022-08-31T09:34:58.613Z,585.66667
2022-08-31T09:40:04.310Z,553.90099
2022-08-31T09:45:08.673Z,579.05155
2022-08-31T09:50:10.452Z,613.56522
2022-08-31T09:55:12.239Z,636.13483
2022-08-31T10:00:14.212Z,636.13483
2022-08-31T10:05:16.409Z,606.36559
2022-08-31T10:10:28.161Z,599.31915
2022-08-31T10:15:33.858Z,592.42105
2022-08-31T10:20:35.952Z,592.42105
2022-08-31T10:25:37.776Z,592.42105
2022-08-31T10:30:39.670Z,592.42105
2022-08-31T10:35:41.582Z,606.36559
2022-08-31T10:40:43.095Z,613.56522
2022-08-31T10:45:44.725Z,628.44444
2022-08-31T10:50:46.639Z,620.92308
2022-08-31T10:55:48.249Z,660.27907
2022-08-31T11:00:49.979Z,660.27907
2022-08-31T11:05:51.900Z,636.13483
2022-08-31T11:10:53.346Z,636.13483
2022-08-31T11:15:55.162Z,686.16867
2022-08-31T11:20:57.005Z,733.74359
2022-08-31T11:25:59.016Z,714
2022-08-31T11:31:01.037Z,668.70588
2022-08-31T11:36:06.758Z,660.27907
2022-08-31T11:41:09.486Z,668.70588
2022-08-31T11:46:11.378Z,744
2022-08-31T11:51:14.602Z,686.16867
2022-08-31T11:56:16.389Z,695.21951
2022-08-31T12:01:17.899Z,704.49383
2022-08-31T12:06:19.732Z,686.16867
2022-08-31T12:11:21.283Z,714
2022-08-31T12:16:22.797Z,704.49383
2022-08-31T12:21:24.553Z,744
2022-08-31T12:26:26.322Z,660.27907
2022-08-31T12:31:28.189Z,660.27907
2022-08-31T12:36:30.368Z,585.66667
2022-08-31T12:41:32.033Z,628.44444
2022-08-31T12:46:34.181Z,668.70588
2022-08-31T12:51:35.778Z,644
2022-08-31T12:56:37.748Z,668.70588
2022-08-31T13:01:39.597Z,644
2022-08-31T13:06:41.697Z,714
2022-08-31T13:11:43.478Z,695.21951
2022-08-31T13:16:45.561Z,714
2022-08-31T13:21:47.769Z,723.74684
2022-08-31T13:26:49.527Z,723.74684
2022-08-31T13:31:51.296Z,744
2022-08-31T13:36:53.802Z,744
2022-08-31T13:41:55.824Z,714
2022-08-31T13:46:57.503Z,686.16867
2022-08-31T13:51:59.536Z,652.04598
2022-08-31T13:57:01.324Z,636.13483
2022-08-31T14:02:03.346Z,628.44444
2022-08-31T14:07:05.541Z,620.92308
2022-08-31T14:12:07.387Z,585.66667
2022-08-31T14:17:09.292Z,606.36559
2022-08-31T14:22:11.124Z,723.74684
2022-08-31T14:27:13.093Z,695.21951
2022-08-31T14:32:15.155Z,695.21951
2022-08-31T14:37:17.618Z,723.74684
2022-08-31T14:42:19.096Z,811.60563
2022-08-31T14:47:20.662Z,765.33333
2022-08-31T14:52:22.435Z,799.55556
2022-08-31T14:57:24.074Z,824
2022-08-31T15:02:25.583Z,799.55556
2022-08-31T15:07:27.350Z,836.75362
2022-08-31T15:12:28.822Z,836.75362
2022-08-31T15:17:30.378Z,863.40299
2022-08-31T15:22:31.866Z,849.88235
2022-08-31T15:27:33.423Z,836.75362
2022-08-31T15:32:35.049Z,787.83562
2022-08-31T15:37:36.908Z,754.52632
2022-08-31T15:42:38.698Z,704.49383
2022-08-31T15:47:40.141Z,787.83562
2022-08-31T15:52:42.139Z,704.49383
2022-08-31T15:57:44.103Z,765.33333
2022-08-31T16:02:46.000Z,494
2022-08-31T16:07:48.002Z,599.31915
2022-08-31T16:12:49.757Z,652.04598
2022-08-31T16:17:51.454Z,620.92308
2022-08-31T16:22:53.331Z,530.66667
2022-08-31T16:27:55.017Z,560
2022-08-31T16:32:56.675Z,585.66667
2022-08-31T16:37:58.768Z,572.57143
2022-08-31T16:43:00.681Z,566.22222
2022-08-31T16:48:02.799Z,579.05155
2022-08-31T16:53:04.606Z,579.05155
2022-08-31T16:58:06.650Z,585.66667
2022-08-31T17:03:08.510Z,592.42105
2022-08-31T17:08:10.763Z,519.70093
2022-08-31T17:13:12.750Z,494
2022-08-31T17:18:14.677Z,461.64706
2022-08-31T17:23:16.186Z,448.91803
2022-08-31T17:28:18.086Z,479.65217
2022-08-31T17:33:19.848Z,504
2022-08-31T17:38:21.706Z,489.13274
2022-08-31T17:43:23.202Z,504
2022-08-31T17:48:28.672Z,498.95495
2022-08-31T17:53:32.028Z,498.95495
2022-08-31T17:58:33.673Z,484.35088
2022-08-31T18:03:35.238Z,479.65217
2022-08-31T18:08:37.172Z,453.09091
2022-08-31T18:13:38.751Z,461.64706
2022-08-31T18:18:40.508Z,436.8
2022-08-31T18:23:42.229Z,425.25
2022-08-31T18:28:43.772Z,410.66667
2022-08-31T18:33:45.216Z,425.25
2022-08-31T18:38:47.211Z,425.25
2022-08-31T18:43:48.700Z,504
2022-08-31T18:48:50.256Z,461.64706
2022-08-31T18:53:51.919Z,461.64706
2022-08-31T18:58:53.518Z,489.13274
2022-08-31T19:03:55.283Z,547.92157
2022-08-31T19:08:57.194Z,547.92157
2022-08-31T19:13:59.293Z,536.30769
2022-08-31T19:19:01.144Z,553.90099
2022-08-31T19:24:03.114Z,592.42105
2022-08-31T19:29:07.203Z,628.44444
2022-08-31T19:34:09.012Z,636.13483
2022-08-31T19:39:11.335Z,668.70588
2022-08-31T19:44:13.233Z,686.16867
2022-08-31T19:49:14.699Z,652.04598
2022-08-31T19:54:16.619Z,628.44444
2022-08-31T19:59:18.132Z,686.16867
2022-08-31T20:04:19.982Z,714
2022-08-31T20:09:25.514Z,733.74359
2022-08-31T20:14:26.977Z,695.21951
2022-08-31T20:19:28.388Z,636.13483
2022-08-31T20:24:29.819Z,695.21951
2022-08-31T20:29:33.393Z,723.74684
2022-08-31T20:34:35.868Z,714
2022-08-31T20:39:38.012Z,723.74684
2022-08-31T20:44:39.911Z,733.74359
2022-08-31T20:49:41.429Z,723.74684
2022-08-31T20:54:43.178Z,744
2022-08-31T20:59:44.963Z,776.43243
2022-08-31T21:04:46.781Z,744
2022-08-31T21:09:48.978Z,723.74684
2022-08-31T21:14:50.752Z,744
2022-08-31T21:19:52.647Z,744
2022-08-31T21:24:54.542Z,776.43243
2022-08-31T21:29:56.419Z,744
2022-08-31T21:34:58.190Z,765.33333
2022-08-31T21:40:01.034Z,744
2022-08-31T21:45:03.716Z,754.52632
2022-08-31T21:50:05.688Z,754.52632
2022-08-31T21:55:07.469Z,765.33333
2022-08-31T22:00:09.360Z,754.52632
2022-08-31T22:05:11.244Z,744
2022-08-31T22:10:14.167Z,733.74359
2022-08-31T22:15:15.949Z,733.74359
2022-08-31T22:20:17.945Z,714
2022-08-31T22:25:20.443Z,714
2022-08-31T22:30:21.874Z,714
2022-08-31T22:35:23.524Z,714
2022-08-31T22:40:25.272Z,695.21951
2022-08-31T22:45:26.855Z,660.27907
2022-08-31T22:50:28.409Z,660.27907
2022-08-31T22:55:29.944Z,599.31915
2022-08-31T23:00:31.395Z,572.57143
2022-08-31T23:05:32.874Z,579.05155
2022-08-31T23:10:34.670Z,620.92308
2022-08-31T23:15:36.150Z,677.33333
2022-08-31T23:20:38.071Z,686.16867
2022-08-31T23:25:39.880Z,744
2022-08-31T23:30:41.793Z,733.74359
2022-08-31T23:35:43.599Z,744
2022-08-31T23:40:45.752Z,744
2022-08-31T23:45:47.516Z,744
2022-08-31T23:50:49.232Z,754.52632
2022-08-31T23:55:50.943Z,733.74359
